Historyczne dane pomiarowe

Dodano dane terminowe – wersja testowa.

Dane z okresu 1951-2019

Wersja bazy: 1.34 [2019-03-16, lista zmian], aktualizacja planowana na 2019-04-15

Dane meteo z obszaru Polski uzyskane na podstawie danych udostępnionych przez Instytut Meteorologii i Gospodarki Wodnej – Państwowy Instytut Badawczy.

 

Wybierz Datę:    

       

TemperaturaWilgotnośćWiatrCiśnienieOpadyŚniegCzas trwania zjawisk
 Stacja t tx tn tng RH VA  wxwx mslp ppp RRR   cm mm wxwxwxwxwxwxwx
1994-08-14 11.5 15.4 9.1 8.4 77.5- 4.3 3.7---- 0.0------------
1994-08-13 14.4 19.6 12.4 12.0 91.3- 6.3 4.0---- 2.7------------
1994-08-12 14.5 16.9 13.2 10.2 98.8- 8.0 2.3---- 2.5------------
1994-08-11 16.5 19.2 15.3 12.7 83.0- 8.0 2.3---- 4.2------------
1994-08-10 17.9 23.1 13.2 11.4 75.8- 1.3 1.7---- 0.0------------
1994-08-09 17.2 20.5 14.4 12.6 98.3- 8.0 4.0---- 6.5------------
1994-08-08 19.7 25.1 17.3 13.9 82.0- 7.7 2.3---- 1.8------------
1994-08-07 22.3 27.6 18.6 11.7 70.5- 2.7 2.0---- 2.9------------
1994-08-06 23.9 29.1 18.5 9.3 55.8- 0.0 1.0---- 0.0------------
1994-08-05 22.7 27.6 18.0 10.8 58.5- 1.7 1.3---- 0.0------------
1994-08-04 22.3 27.9 17.6 13.2 73.0- 3.7 1.7---- 0.0------------
1994-08-03 23.3 27.4 19.3 13.3 62.8- 2.0 3.7---- 1.8------------
1994-08-02 22.9 28.5 18.8 12.7 59.5- 6.0 2.3---- 0.8------------
1994-08-01 25.9 30.9 22.1 12.0 50.8- 2.3 2.0---- 0.0------------
1994-07-31 26.0 30.7 21.2 11.8 49.3- 0.7 1.0---- 0.0------------
1994-07-30 27.2 31.1 22.8 11.8 37.8- 0.3 1.7---- 0.0------------
1994-07-29 25.3 30.4 20.5 10.8 40.8- 0.0 2.7---- 0.0------------
1994-07-28 25.2 29.7 19.5 10.5 46.8- 1.3 1.0---- 0.0------------
1994-07-27 25.4 29.9 21.3 10.9 41.0- 1.3 2.3---- 0.0------------
1994-07-26 23.6 29.2 19.3 9.6 48.8- 2.7 1.3---- 0.0------------
1994-07-25 23.5 27.9 17.9 9.0 47.0- 1.7 0.7---- 0.0------------
1994-07-24 22.1 26.2 18.3 9.7 47.0- 1.0 1.0---- 0.0------------
1994-07-23 20.0 24.9 15.8 8.7 60.8- 2.3 1.0---- 0.0------------
1994-07-22 19.2 24.0 14.0 7.6 58.3- 0.3 2.3---- 0.0------------
1994-07-21 18.6 23.4 13.8 7.5 56.5- 0.3 1.7---- 0.0------------
1994-07-20 16.3 21.4 10.0 5.2 68.8- 1.3 2.0---- 0.0------------
1994-07-19 16.4 21.2 12.6 9.5 82.0- 2.3 3.0---- 0.0------------
1994-07-18 19.0 22.1 17.1 11.6 86.5- 2.7 1.7---- 31.2------------
1994-07-17 20.4 25.5 17.1 14.0 77.5- 8.0 2.7---- 0.8------------
1994-07-16 21.7 27.5 16.7 8.3 55.8- 3.0 2.7---- 0.0------------
1994-07-15 21.1 24.8 17.0 10.4 61.0- 3.7 1.3---- 0.0------------
1994-07-14 21.9 26.2 18.3 10.5 55.3- 5.7 2.0---- 0.0------------
1994-07-13 21.6 25.6 18.0 13.0 48.8- 2.0 1.7---- 0.0------------
1994-07-12 18.9 24.6 14.0 11.2 75.0- 4.7 2.0---- 0.0------------
1994-07-11 16.3 22.2 12.2 10.0 85.8- 5.3 2.7---- 0.0------------
1994-07-10 13.8 21.2 10.6 10.6 90.3- 6.0 2.7---- 18.5------------
1994-07-09 10.7 13.1 10.1 9.3 98.0- 7.7 3.3---- 16.3------------
1994-07-08 14.4 18.8 11.0 11.7 78.0- 4.3 3.3---- 2.2------------
1994-07-07 19.2 24.3 14.0 5.7 55.8- 3.0 2.7---- 1.4------------
1994-07-06 17.7 22.4 12.8 3.7 56.8- 3.0 1.7---- 0.0------------
1994-07-05 19.0 23.3 14.9 7.5 59.3- 5.0 3.3---- 0.0------------
1994-07-04 20.4 24.9 15.4 6.7 53.8- 1.0 2.3---- 0.0------------
1994-07-03 17.6 22.9 11.0 8.5 55.5- 0.7 0.3---- 0.0------------
1994-07-02 15.1 21.0 11.0 4.6 67.0- 0.0 2.3---- 0.0------------
1994-07-01 15.9 21.0 10.6 5.8 71.5- 2.3 1.7---- 0.0------------
1994-06-30 21.4 25.7 17.5 11.6 73.0- 4.7 3.3---- 2.8------------
1994-06-29 22.8 27.4 17.0 12.8 60.5- 1.3 0.7---- 0.0------------
1994-06-28 21.5 26.7 17.6 13.9 72.3- 0.7 1.7---- 0.0------------
1994-06-27 24.7 29.6 18.2 12.2 62.8- 1.7 3.0---- 0.0------------
1994-06-26 19.2 26.1 11.7 6.9 65.3- 1.0 3.0---- 0.0------------
1994-06-25 13.7 19.7 7.4 0.3 66.0- 0.3 1.7---- 0.0------------
1994-06-24 12.0 17.0 7.1 4.8 60.8- 1.3 3.3---- 0.0------------
1994-06-23 14.8 19.3 12.8 11.0 57.5- 1.7 5.3---- 0.0------------
1994-06-22 16.9 23.1 10.0 3.7 68.0- 6.3 5.3---- 0.0------------
1994-06-21 13.0 18.5 7.2 1.7 68.0- 2.7 1.3---- 0.0------------
1994-06-20 14.6 18.6 12.0 10.4 63.5- 4.7 4.0---- 0.0------------
1994-06-19 12.2 19.9 8.9 8.7 75.3- 6.0 4.3---- 0.0------------
1994-06-18 10.3 15.9 5.5 2.5 71.0- 4.0 3.0---- 4.1------------
1994-06-17 7.8 11.6 6.2 6.2 80.8- 6.0 3.0---- 0.5------------
1994-06-16 9.4 13.2 7.7 4.6 72.5- 7.3 6.0---- 4.7------------
210.3 ms

 

Źródłem pochodzenia danych jest Instytut Meteorologii i Gospodarki Wodnej – Państwowy Instytut Badawczy. Dane Instytutu Meteorologii i Gospodarki Wodnej – Państwowego Instytutu Badawczego zostały przetworzone.

Dane źródłowe można odnaleźć na stronie https://dane.imgw.pl